Time;durP1;ratioP1;P1;durP2;ratioP2;P2;SDS_P1;SDS_P2;PMS_P1;PMS_P2;Temp;Humidity;BMP_temperature;BMP_pressure;BME280_temperature;BME280_humidity;BME280_pressure;Samples;Min_cycle;Max_cycle;Signal;HPM_P1;HPM_P2
2022/05/30 00:01:08;;;;;;;7.03;1.95;;;8.60;99.90;;;;;;5071662;28;20045;-52
2022/05/30 00:03:34;;;;;;;7.20;2.20;;;8.60;99.90;;;;;;5057924;28;20051;-52
2022/05/30 00:06:00;;;;;;;6.50;1.67;;;8.60;99.90;;;;;;5071466;28;20040;-52
2022/05/30 00:08:25;;;;;;;7.53;1.80;;;8.60;99.90;;;;;;5071709;28;20048;-52
2022/05/30 00:10:51;;;;;;;7.90;2.35;;;8.50;99.90;;;;;;5075715;28;20060;-52
2022/05/30 00:13:17;;;;;;;4.22;1.50;;;8.50;99.90;;;;;;5075364;28;20098;-52
2022/05/30 00:15:43;;;;;;;8.85;2.25;;;8.50;99.90;;;;;;5075711;28;20044;-52
2022/05/30 00:18:09;;;;;;;7.20;1.67;;;8.40;99.90;;;;;;5075561;28;20044;-52
2022/05/30 00:20:36;;;;;;;11.43;2.53;;;8.40;99.90;;;;;;5075351;28;20128;-51
2022/05/30 00:23:03;;;;;;;5.25;1.80;;;8.30;99.90;;;;;;5057411;28;20509;-52
2022/05/30 00:25:28;;;;;;;8.38;2.20;;;8.40;99.90;;;;;;5075100;28;20442;-52
2022/05/30 00:27:54;;;;;;;2.95;1.58;;;8.30;99.90;;;;;;5075116;28;20047;-51
2022/05/30 00:30:20;;;;;;;7.35;1.70;;;8.30;99.90;;;;;;5075479;28;20052;-51
2022/05/30 00:32:45;;;;;;;8.77;1.77;;;8.30;99.90;;;;;;5075227;28;20426;-51
2022/05/30 00:35:12;;;;;;;7.35;1.98;;;8.30;99.90;;;;;;5075338;28;20051;-52
2022/05/30 00:37:38;;;;;;;9.38;1.92;;;8.20;99.90;;;;;;5074947;28;20553;-52
2022/05/30 00:40:04;;;;;;;7.97;1.70;;;8.20;99.90;;;;;;5074950;28;20052;-51
2022/05/30 00:42:31;;;;;;;4.45;1.55;;;8.20;99.90;;;;;;5074684;28;20047;-52
2022/05/30 00:44:57;;;;;;;5.72;2.33;;;8.20;99.90;;;;;;5075017;28;20044;-52
2022/05/30 00:47:25;;;;;;;4.57;2.05;;;8.20;99.90;;;;;;5075208;28;20044;-52
2022/05/30 00:49:51;;;;;;;5.72;1.75;;;8.20;99.90;;;;;;5074649;28;20052;-51
2022/05/30 00:52:24;;;;;;;7.47;1.70;;;8.20;99.90;;;;;;5074822;28;20048;-49
2022/05/30 00:54:54;;;;;;;6.90;1.80;;;8.20;99.90;;;;;;5074551;28;20040;-52
2022/05/30 00:57:22;;;;;;;5.65;1.60;;;8.10;99.90;;;;;;5074650;28;20048;-51
2022/05/30 00:59:56;;;;;;;3.75;1.50;;;8.10;99.90;;;;;;5074317;28;20491;-50
2022/05/30 01:02:25;;;;;;;9.60;1.73;;;8.10;99.90;;;;;;5074781;28;20040;-52
2022/05/30 01:07:40;;;;;;;7.28;2.22;;;8.10;99.90;;;;;;5062540;28;20040;-51
2022/05/30 01:10:09;;;;;;;4.07;1.20;;;8.10;99.90;;;;;;5074643;28;20445;-51
2022/05/30 01:12:38;;;;;;;5.90;1.55;;;8.10;99.90;;;;;;5074822;28;20114;-52
2022/05/30 01:15:05;;;;;;;;;;;8.10;99.90;;;;;;5075043;28;20143;-51
2022/05/30 01:17:32;;;;;;;4.22;1.17;;;8.10;99.90;;;;;;5074337;28;19967;-52
2022/05/30 01:20:05;;;;;;;4.03;1.13;;;8.00;99.90;;;;;;5073456;28;20395;-52
2022/05/30 01:22:51;;;;;;;6.80;1.45;;;8.10;99.90;;;;;;5073807;28;20047;-52
2022/05/30 01:25:48;;;;;;;1.98;1.20;;;8.00;99.90;;;;;;4992678;28;20121;-52
2022/05/30 01:28:38;;;;;;;4.80;1.20;;;8.00;99.90;;;;;;4993055;28;20061;-51
2022/05/30 01:31:04;;;;;;;5.57;1.30;;;8.00;99.90;;;;;;4992600;28;20073;-51
2022/05/30 01:33:30;;;;;;;6.00;1.70;;;8.00;99.90;;;;;;4992697;28;20122;-52
2022/05/30 01:35:56;;;;;;;4.85;1.35;;;8.00;99.90;;;;;;4992790;28;20568;-51
2022/05/30 01:38:24;;;;;;;3.17;1.25;;;7.90;99.90;;;;;;4992673;28;20042;-51
2022/05/30 01:40:50;;;;;;;5.15;1.58;;;7.80;99.90;;;;;;4992551;28;20054;-50
2022/05/30 01:43:17;;;;;;;3.35;1.63;;;7.70;99.90;;;;;;4992504;28;20046;-50
2022/05/30 01:45:43;;;;;;;9.75;1.40;;;7.60;99.90;;;;;;4992611;28;20050;-51
2022/05/30 01:48:08;;;;;;;6.43;1.40;;;7.60;99.90;;;;;;4992243;28;20042;-52
2022/05/30 01:50:34;;;;;;;6.68;1.50;;;7.60;99.90;;;;;;4992383;28;20082;-49
2022/05/30 01:53:01;;;;;;;5.15;1.40;;;7.60;99.90;;;;;;4992147;28;20047;-51
2022/05/30 01:55:26;;;;;;;5.63;1.40;;;7.70;99.90;;;;;;4992351;28;20227;-52
2022/05/30 01:57:52;;;;;;;2.88;1.20;;;7.70;99.90;;;;;;4992187;28;20066;-52
2022/05/30 02:00:18;;;;;;;3.08;2.10;;;7.60;99.90;;;;;;4991977;28;20043;-52
2022/05/30 02:02:44;;;;;;;8.43;1.50;;;7.70;99.90;;;;;;5045213;28;20414;-52
2022/05/30 02:05:10;;;;;;;2.58;1.20;;;7.70;99.90;;;;;;5073596;28;20039;-52
2022/05/30 02:07:37;;;;;;;4.03;1.33;;;7.60;99.90;;;;;;5073192;28;20127;-51
2022/05/30 02:10:03;;;;;;;5.22;1.90;;;7.60;99.90;;;;;;5073426;28;20432;-52
2022/05/30 02:12:29;;;;;;;3.72;1.73;;;7.60;99.90;;;;;;5059323;28;20048;-51
2022/05/30 02:14:54;;;;;;;6.00;2.03;;;7.50;99.90;;;;;;5073241;28;20391;-52
2022/05/30 02:17:20;;;;;;;6.43;1.90;;;7.40;99.90;;;;;;5073321;28;20045;-52
2022/05/30 02:19:46;;;;;;;6.50;2.13;;;7.40;99.90;;;;;;5073137;28;20049;-52
2022/05/30 02:22:22;;;;;;;6.80;1.75;;;7.50;99.90;;;;;;5073033;28;20394;-52
2022/05/30 02:24:48;;;;;;;4.68;2.90;;;7.50;99.90;;;;;;5073046;28;20390;-51
2022/05/30 02:27:15;;;;;;;7.60;2.72;;;7.40;99.90;;;;;;5072974;28;20119;-50
2022/05/30 02:29:42;;;;;;;5.75;2.03;;;7.50;99.90;;;;;;5071193;28;20048;-51
2022/05/30 02:32:09;;;;;;;4.55;1.58;;;7.60;99.90;;;;;;5072490;28;20071;-52
2022/05/30 02:37:19;;;;;;;4.70;1.38;;;7.50;99.90;;;;;;5072566;28;20402;-52
2022/05/30 02:39:44;;;;;;;3.92;1.60;;;7.60;99.90;;;;;;5072686;28;20048;-52
2022/05/30 02:42:10;;;;;;;3.42;1.55;;;7.50;99.90;;;;;;5072913;28;20087;-52
2022/05/30 02:44:36;;;;;;;2.55;1.08;;;7.50;99.90;;;;;;5072579;28;20037;-50
2022/05/30 02:47:03;;;;;;;2.85;1.23;;;7.60;99.90;;;;;;5072500;28;20474;-49
2022/05/30 02:49:29;;;;;;;3.33;1.20;;;7.50;99.90;;;;;;5072368;28;20087;-49
2022/05/30 02:51:56;;;;;;;2.25;1.05;;;7.50;99.90;;;;;;5072796;28;20080;-50
2022/05/30 02:54:23;;;;;;;1.65;1.15;;;7.50;99.90;;;;;;5072677;28;20095;-51
2022/05/30 02:56:50;;;;;;;5.63;1.67;;;7.60;99.90;;;;;;5072379;28;20482;-51
2022/05/30 02:59:17;;;;;;;3.83;1.45;;;7.60;99.90;;;;;;5072270;28;20040;-50
2022/05/30 03:01:43;;;;;;;3.65;1.20;;;7.70;99.90;;;;;;5072126;28;20041;-51
2022/05/30 03:04:09;;;;;;;4.03;1.60;;;7.80;99.90;;;;;;5072735;28;20087;-50
2022/05/30 03:06:35;;;;;;;3.85;1.10;;;7.80;99.90;;;;;;5072700;28;20525;-52
2022/05/30 03:09:02;;;;;;;4.22;1.50;;;7.90;99.90;;;;;;5054363;28;20049;-47
2022/05/30 03:11:28;;;;;;;1.85;1.15;;;7.90;99.90;;;;;;5072222;28;20040;-51
2022/05/30 03:13:53;;;;;;;6.65;1.75;;;7.90;99.90;;;;;;5072108;28;20044;-51
2022/05/30 03:16:19;;;;;;;6.80;2.33;;;7.90;99.90;;;;;;5072323;28;20048;-51
2022/05/30 03:18:45;;;;;;;3.65;1.55;;;8.00;99.90;;;;;;5071968;28;20040;-50
2022/05/30 03:21:12;;;;;;;5.53;1.38;;;8.00;99.90;;;;;;5072044;28;20119;-50
2022/05/30 03:23:37;;;;;;;4.70;1.58;;;8.00;99.90;;;;;;5072189;28;20040;-51
2022/05/30 03:26:04;;;;;;;6.65;1.73;;;8.10;99.90;;;;;;5071899;28;20056;-50
2022/05/30 03:28:31;;;;;;;3.45;1.60;;;8.00;99.90;;;;;;5071884;28;20090;-52
2022/05/30 03:30:58;;;;;;;5.30;1.73;;;8.10;99.90;;;;;;5071746;28;20047;-51
2022/05/30 03:33:24;;;;;;;4.88;1.33;;;8.10;99.90;;;;;;5071918;28;20051;-50
2022/05/30 03:35:50;;;;;;;6.32;1.55;;;8.10;99.90;;;;;;5071575;28;20048;-51
2022/05/30 03:38:15;;;;;;;5.45;1.45;;;8.20;99.90;;;;;;5071891;28;20075;-52
2022/05/30 03:40:43;;;;;;;5.10;1.55;;;8.20;99.90;;;;;;5071561;28;20503;-51
2022/05/30 03:43:11;;;;;;;6.38;1.50;;;8.20;99.90;;;;;;5053480;28;20110;-51
2022/05/30 03:45:38;;;;;;;5.30;1.63;;;8.20;99.90;;;;;;5071696;28;20051;-52
2022/05/30 03:48:04;;;;;;;4.18;1.25;;;8.30;99.90;;;;;;5071439;28;20076;-52
2022/05/30 03:50:31;;;;;;;5.38;1.90;;;8.30;99.90;;;;;;5071715;28;20445;-51
2022/05/30 03:53:04;;;;;;;5.47;1.38;;;8.30;99.90;;;;;;5071661;28;20411;-49
2022/05/30 03:55:32;;;;;;;5.70;1.90;;;8.30;99.90;;;;;;5071942;28;20053;-51
2022/05/30 03:57:58;;;;;;;4.45;1.60;;;8.40;99.90;;;;;;5071575;28;20089;-51
2022/05/30 04:00:24;;;;;;;6.30;2.10;;;8.40;99.90;;;;;;5071607;28;20044;-50
2022/05/30 04:02:49;;;;;;;5.10;1.70;;;8.40;99.90;;;;;;5071922;28;20178;-51
2022/05/30 04:05:17;;;;;;;3.63;1.70;;;8.40;99.90;;;;;;5071546;28;20529;-52
2022/05/30 04:07:43;;;;;;;5.85;1.90;;;8.40;99.90;;;;;;5071195;28;20617;-51
2022/05/30 04:10:09;;;;;;;4.95;1.90;;;8.40;99.90;;;;;;5071569;28;20051;-51
2022/05/30 04:12:36;;;;;;;3.40;1.67;;;8.50;99.90;;;;;;5071518;28;20144;-51
2022/05/30 04:15:03;;;;;;;5.07;1.95;;;8.50;99.90;;;;;;5071205;28;20056;-51
2022/05/30 04:17:31;;;;;;;5.82;1.70;;;8.40;99.90;;;;;;5071678;28;20076;-51
2022/05/30 04:19:57;;;;;;;5.78;2.10;;;8.60;99.90;;;;;;5071298;28;20045;-52
2022/05/30 04:22:22;;;;;;;3.50;1.63;;;8.60;99.90;;;;;;5071420;28;20043;-52
2022/05/30 04:24:48;;;;;;;8.68;1.90;;;8.60;99.90;;;;;;5071426;28;20098;-52
2022/05/30 04:27:13;;;;;;;7.38;2.05;;;8.60;99.90;;;;;;5071239;28;20110;-51
2022/05/30 04:29:39;;;;;;;3.35;1.33;;;8.60;99.90;;;;;;5071272;28;20048;-50
2022/05/30 04:32:06;;;;;;;5.22;1.90;;;8.70;99.90;;;;;;5071147;28;20071;-52
2022/05/30 04:34:32;;;;;;;8.52;2.38;;;8.70;99.90;;;;;;5071434;28;20044;-51
2022/05/30 04:36:58;;;;;;;6.30;1.70;;;8.70;99.90;;;;;;5071517;28;20430;-51
2022/05/30 04:39:24;;;;;;;2.88;2.08;;;8.70;99.90;;;;;;5071058;28;20048;-51
2022/05/30 04:41:49;;;;;;;3.15;1.70;;;8.80;99.90;;;;;;5070264;28;20406;-52
2022/05/30 04:44:15;;;;;;;4.25;1.95;;;8.80;99.90;;;;;;5070977;28;20044;-51
2022/05/30 04:46:41;;;;;;;4.78;1.73;;;8.80;99.90;;;;;;5071567;28;20102;-51
2022/05/30 04:49:07;;;;;;;3.92;1.73;;;8.80;99.90;;;;;;5071677;28;20032;-52
2022/05/30 04:51:32;;;;;;;7.97;2.22;;;8.80;99.90;;;;;;5071043;28;20414;-51
2022/05/30 04:53:58;;;;;;;4.18;1.77;;;8.80;99.90;;;;;;5071010;28;20044;-51
2022/05/30 04:56:24;;;;;;;5.53;2.13;;;8.90;99.90;;;;;;5073902;28;20487;-51
2022/05/30 04:58:50;;;;;;;3.53;1.58;;;8.90;99.90;;;;;;5074589;28;20380;-51
2022/05/30 05:01:17;;;;;;;5.75;1.77;;;8.90;99.90;;;;;;5074846;28;20044;-50
2022/05/30 05:03:44;;;;;;;5.60;1.83;;;8.90;99.90;;;;;;5074757;28;20047;-52
2022/05/30 05:06:19;;;;;;;5.68;2.10;;;8.90;99.90;;;;;;5074598;28;20036;-51
2022/05/30 05:08:51;;;;;;;5.32;1.95;;;8.90;99.90;;;;;;5074402;28;20053;-52
2022/05/30 05:11:19;;;;;;;4.57;1.80;;;8.90;99.90;;;;;;5074725;28;20048;-51
2022/05/30 05:13:45;;;;;;;4.40;1.70;;;8.90;99.90;;;;;;5060690;28;20053;-47
2022/05/30 05:16:11;;;;;;;3.80;1.73;;;9.00;99.90;;;;;;5074346;28;20455;-51
2022/05/30 05:18:37;;;;;;;3.72;1.90;;;9.00;99.90;;;;;;5074338;28;20161;-51
2022/05/30 05:21:03;;;;;;;3.65;1.92;;;9.00;99.90;;;;;;5074322;28;20531;-52
2022/05/30 05:23:29;;;;;;;4.68;1.80;;;9.00;99.90;;;;;;5073993;28;20067;-52
2022/05/30 05:25:55;;;;;;;2.80;2.00;;;9.10;99.90;;;;;;5074004;28;20125;-52
2022/05/30 05:28:21;;;;;;;4.18;1.60;;;9.00;99.90;;;;;;5074447;28;20102;-52
2022/05/30 05:30:46;;;;;;;4.78;1.90;;;9.10;99.90;;;;;;5074450;28;20056;-52
2022/05/30 05:33:12;;;;;;;6.40;1.90;;;9.20;99.90;;;;;;5056167;28;20052;-52
2022/05/30 05:35:45;;;;;;;4.88;2.15;;;9.40;99.90;;;;;;5054609;28;20076;-51
2022/05/30 05:38:12;;;;;;;4.00;1.70;;;9.60;99.90;;;;;;5073896;28;20044;-52
2022/05/30 05:40:39;;;;;;;4.90;1.70;;;9.60;99.90;;;;;;5074000;28;20052;-51
2022/05/30 05:43:05;;;;;;;4.30;1.70;;;9.60;99.90;;;;;;5073790;28;20441;-52
2022/05/30 05:45:33;;;;;;;5.35;2.10;;;9.70;99.90;;;;;;5056127;28;20048;-50
2022/05/30 05:47:59;;;;;;;5.82;1.75;;;9.70;99.90;;;;;;5073628;28;20121;-52
2022/05/30 05:50:25;;;;;;;2.70;1.60;;;9.70;99.90;;;;;;5073622;28;20124;-53
2022/05/30 05:52:53;;;;;;;6.22;1.75;;;9.80;99.90;;;;;;5073623;28;20084;-51
2022/05/30 05:55:19;;;;;;;6.10;1.57;;;9.80;99.90;;;;;;5073706;28;20048;-52
2022/05/30 05:57:45;;;;;;;4.15;1.63;;;9.90;99.90;;;;;;5073627;28;20293;-52
2022/05/30 06:00:11;;;;;;;5.57;2.10;;;9.90;99.90;;;;;;5055788;28;20378;-52
2022/05/30 06:02:39;;;;;;;2.78;1.63;;;9.90;99.90;;;;;;5073628;28;20044;-52
2022/05/30 06:05:05;;;;;;;6.13;2.30;;;9.90;99.90;;;;;;5073580;28;20067;-52
2022/05/30 06:07:33;;;;;;;6.15;1.83;;;10.00;99.90;;;;;;5072505;28;20450;-49
2022/05/30 06:09:58;;;;;;;2.47;1.35;;;10.10;99.90;;;;;;5073583;28;20397;-51
2022/05/30 06:12:24;;;;;;;1.77;1.33;;;10.20;99.90;;;;;;5073492;28;20044;-50
2022/05/30 06:14:50;;;;;;;4.15;1.40;;;10.30;99.90;;;;;;5073130;28;20036;-52
2022/05/30 06:17:15;;;;;;;7.18;1.60;;;10.40;99.90;;;;;;5073195;28;20040;-49
2022/05/30 06:19:41;;;;;;;4.28;1.23;;;10.40;99.90;;;;;;5073504;28;20382;-53
2022/05/30 06:22:07;;;;;;;6.57;1.27;;;10.50;99.90;;;;;;5073191;28;20040;-51
2022/05/30 06:24:32;;;;;;;2.58;1.13;;;10.60;99.90;;;;;;5073260;28;20040;-52
2022/05/30 06:26:58;;;;;;;4.13;0.90;;;10.70;99.90;;;;;;5072872;28;20062;-51
2022/05/30 06:29:23;;;;;;;4.20;1.13;;;10.80;99.90;;;;;;5073066;28;20068;-50
2022/05/30 06:31:49;;;;;;;2.58;0.65;;;10.90;99.90;;;;;;5072776;28;20044;-52
2022/05/30 06:34:15;;;;;;;2.83;0.65;;;11.00;99.90;;;;;;5073178;28;20542;-52
2022/05/30 06:36:42;;;;;;;2.60;0.80;;;11.00;99.90;;;;;;5072528;28;20178;-52
2022/05/30 06:39:10;;;;;;;1.85;0.60;;;11.10;99.90;;;;;;5072411;28;20049;-52
2022/05/30 06:41:35;;;;;;;4.90;1.00;;;11.10;99.90;;;;;;5073103;28;20040;-52
2022/05/30 06:44:06;;;;;;;5.10;0.90;;;11.10;99.90;;;;;;5072735;28;20036;-53
2022/05/30 06:46:34;;;;;;;3.97;0.70;;;11.10;99.90;;;;;;5072701;28;20502;-52
2022/05/30 06:49:00;;;;;;;4.85;1.20;;;11.30;99.90;;;;;;5072558;28;20056;-52
2022/05/30 06:51:29;;;;;;;4.15;1.10;;;11.30;99.90;;;;;;5072383;28;20467;-52
2022/05/30 06:53:55;;;;;;;2.42;0.70;;;11.40;99.90;;;;;;5072623;28;20040;-52
2022/05/30 06:56:28;;;;;;;4.65;0.80;;;11.30;99.90;;;;;;5072333;28;20119;-51
2022/05/30 06:58:54;;;;;;;4.25;1.00;;;11.30;99.90;;;;;;5072374;28;20488;-52
2022/05/30 07:01:23;;;;;;;4.75;0.98;;;11.40;99.90;;;;;;5072282;28;20068;-52
2022/05/30 07:03:48;;;;;;;6.47;1.00;;;11.30;99.90;;;;;;5072169;28;20044;-53
2022/05/30 07:06:21;;;;;;;3.20;1.10;;;11.20;99.90;;;;;;5054442;28;20045;-51
2022/05/30 07:08:47;;;;;;;3.85;1.90;;;11.20;99.90;;;;;;5072234;28;20565;-52
2022/05/30 07:11:18;;;;;;;5.18;1.00;;;11.10;99.90;;;;;;5072621;28;20139;-53
2022/05/30 07:13:45;;;;;;;3.45;1.00;;;11.10;99.90;;;;;;5058160;28;20045;-50
2022/05/30 07:16:12;;;;;;;3.58;0.73;;;11.10;99.90;;;;;;5072043;28;20437;-52
2022/05/30 07:18:39;;;;;;;1.73;0.82;;;11.10;99.90;;;;;;5072188;28;20061;-52
2022/05/30 07:21:07;;;;;;;2.08;0.90;;;11.00;99.90;;;;;;5071797;28;20404;-53
2022/05/30 07:23:35;;;;;;;2.85;1.42;;;11.10;99.90;;;;;;5071919;28;20040;-52
2022/05/30 07:26:03;;;;;;;4.10;1.35;;;11.00;99.90;;;;;;5072145;28;20066;-52
2022/05/30 07:28:30;;;;;;;7.78;1.27;;;11.00;99.90;;;;;;5071727;28;20049;-52
2022/05/30 07:31:04;;;;;;;1.85;1.08;;;10.80;99.90;;;;;;5071940;28;20048;-52
2022/05/30 07:33:31;;;;;;;3.20;0.90;;;10.90;99.90;;;;;;5071724;28;20053;-51
2022/05/30 07:35:57;;;;;;;2.75;1.20;;;10.80;99.90;;;;;;5071751;28;20048;-52
2022/05/30 07:38:22;;;;;;;2.42;0.90;;;10.90;99.90;;;;;;5071809;28;20068;-51
2022/05/30 07:40:48;;;;;;;6.05;1.20;;;10.90;99.90;;;;;;5071543;28;20151;-51
2022/05/30 07:43:14;;;;;;;1.95;1.10;;;11.00;99.90;;;;;;5071542;28;20044;-53
2022/05/30 07:45:40;;;;;;;3.38;1.10;;;11.10;99.90;;;;;;5071635;28;20127;-53
2022/05/30 07:48:06;;;;;;;3.63;1.15;;;11.40;99.90;;;;;;5071679;28;20036;-52
2022/05/30 07:50:34;;;;;;;3.58;1.33;;;12.00;99.90;;;;;;5071559;28;20067;-52
2022/05/30 07:53:01;;;;;;;4.47;0.90;;;12.50;99.90;;;;;;5071506;28;20556;-53
2022/05/30 07:55:26;;;;;;;2.67;0.80;;;13.00;99.90;;;;;;5071551;28;20048;-53
2022/05/30 07:57:52;;;;;;;2.20;0.90;;;13.20;99.90;;;;;;5071430;28;20048;-52
2022/05/30 08:00:22;;;;;;;1.65;0.70;;;13.40;99.90;;;;;;5071484;28;20128;-53
2022/05/30 08:02:49;;;;;;;4.63;1.08;;;13.50;99.90;;;;;;5071532;28;20045;-52
2022/05/30 08:05:16;;;;;;;3.53;1.05;;;13.50;99.90;;;;;;5071657;28;20043;-51
2022/05/30 08:07:43;;;;;;;5.65;1.70;;;13.50;99.90;;;;;;5071305;28;20055;-52
2022/05/30 08:10:11;;;;;;;1.67;1.10;;;13.20;99.90;;;;;;5071301;28;20045;-52
2022/05/30 08:12:36;;;;;;;1.48;0.75;;;13.00;99.90;;;;;;5071438;28;20049;-52
2022/05/30 08:15:03;;;;;;;2.63;0.68;;;12.90;99.90;;;;;;5071436;28;20045;-52
2022/05/30 08:17:29;;;;;;;4.43;0.68;;;12.80;99.90;;;;;;5071490;28;20403;-52
2022/05/30 08:19:54;;;;;;;2.42;0.68;;;12.90;99.90;;;;;;5071088;28;20048;-51
2022/05/30 08:22:22;;;;;;;3.58;0.70;;;12.80;99.90;;;;;;5071167;28;20082;-52
2022/05/30 08:24:48;;;;;;;2.97;0.80;;;12.80;99.90;;;;;;5071288;28;20083;-52
2022/05/30 08:27:14;;;;;;;6.40;0.68;;;12.80;99.90;;;;;;5071466;28;20032;-53
2022/05/30 08:29:42;;;;;;;1.20;0.40;;;12.80;99.90;;;;;;5071971;28;20052;-52
2022/05/30 08:32:09;;;;;;;1.30;0.60;;;12.50;99.90;;;;;;5073903;28;20049;-52
2022/05/30 08:34:36;;;;;;;0.80;0.60;;;12.30;99.90;;;;;;5075281;28;20044;-52
2022/05/30 08:37:03;;;;;;;1.90;0.77;;;12.10;99.90;;;;;;5075128;28;20048;-52
2022/05/30 08:42:13;;;;;;;1.90;0.60;;;11.80;99.90;;;;;;5075435;28;20044;-52
2022/05/30 08:44:39;;;;;;;1.48;0.50;;;11.80;99.90;;;;;;5074760;28;20048;-51
2022/05/30 08:47:23;;;;;;;0.82;0.57;;;11.80;99.90;;;;;;5075056;28;20379;-52
2022/05/30 08:49:52;;;;;;;3.95;0.65;;;11.80;99.90;;;;;;5074652;28;20048;-50
2022/05/30 08:52:50;;;;;;;1.55;0.50;;;11.70;99.90;;;;;;5074726;28;20495;-52
2022/05/30 08:55:46;;;;;;;1.70;0.98;;;11.70;99.90;;;;;;5062964;28;20087;-51
2022/05/30 08:58:30;;;;;;;2.22;0.52;;;11.60;99.90;;;;;;5074489;28;20071;-52
2022/05/30 09:01:03;;;;;;;1.00;0.52;;;11.70;99.90;;;;;;5074317;28;20048;-53
2022/05/30 09:03:44;;;;;;;3.17;0.98;;;11.70;99.90;;;;;;5073836;28;20044;-52
2022/05/30 09:06:22;;;;;;;2.10;0.88;;;11.70;99.90;;;;;;5072714;28;20123;-52
2022/05/30 09:09:13;;;;;;;1.83;0.77;;;11.70;99.90;;;;;;5074438;28;20053;-52
2022/05/30 09:12:03;;;;;;;3.92;0.77;;;11.70;99.90;;;;;;5074489;28;20052;-53
2022/05/30 09:14:41;;;;;;;2.60;0.90;;;11.80;99.90;;;;;;5074308;28;20051;-52
2022/05/30 09:17:16;;;;;;;2.88;0.80;;;11.70;99.90;;;;;;5074295;28;20094;-52
2022/05/30 09:19:42;;;;;;;2.83;1.45;;;11.80;99.90;;;;;;5074272;28;20612;-52
2022/05/30 09:22:09;;;;;;;3.75;0.90;;;11.80;99.90;;;;;;5074718;28;20044;-52
2022/05/30 09:24:35;;;;;;;3.17;1.02;;;11.90;99.90;;;;;;5074590;28;20470;-51
2022/05/30 09:27:03;;;;;;;3.33;0.90;;;11.90;99.90;;;;;;5074333;28;20036;-51
2022/05/30 09:29:51;;;;;;;5.30;1.30;;;12.00;99.90;;;;;;5074268;28;20485;-52
2022/05/30 09:32:28;;;;;;;2.65;0.80;;;12.10;99.90;;;;;;5074115;28;20059;-52
2022/05/30 09:34:54;;;;;;;3.58;0.95;;;12.10;99.90;;;;;;5074479;28;20091;-51
2022/05/30 09:37:38;;;;;;;2.13;0.90;;;12.30;99.90;;;;;;5073838;28;20450;-51
2022/05/30 09:40:05;;;;;;;2.22;0.75;;;12.40;99.90;;;;;;5073615;28;20055;-52
2022/05/30 09:42:33;;;;;;;1.95;0.70;;;12.40;99.90;;;;;;5071687;28;20048;-52
2022/05/30 09:45:12;;;;;;;7.57;1.27;;;12.50;99.90;;;;;;5072436;28;20087;-52
2022/05/30 09:47:56;;;;;;;1.73;0.60;;;12.70;99.90;;;;;;5073663;28;20053;-53
2022/05/30 09:50:23;;;;;;;3.08;0.90;;;12.70;99.90;;;;;;5073848;28;20044;-51
2022/05/30 09:52:49;;;;;;;2.55;1.25;;;12.80;99.90;;;;;;5073598;28;20047;-52
2022/05/30 09:55:36;;;;;;;4.13;1.02;;;13.00;99.90;;;;;;5073998;28;20048;-52
2022/05/30 09:58:04;;;;;;;2.80;0.80;;;13.10;99.90;;;;;;5073524;28;20044;-52
2022/05/30 10:00:30;;;;;;;1.83;0.80;;;13.30;99.90;;;;;;5073754;28;20040;-53
2022/05/30 10:03:24;;;;;;;5.13;0.73;;;13.30;99.90;;;;;;5073350;28;20044;-52
2022/05/30 10:05:49;;;;;;;2.40;0.93;;;13.60;99.90;;;;;;5062763;28;20132;-53
2022/05/30 10:08:27;;;;;;;3.10;1.05;;;13.90;99.90;;;;;;5073047;28;20461;-52
2022/05/30 10:10:56;;;;;;;3.72;0.90;;;14.00;99.90;;;;;;5073363;28;20134;-53
2022/05/30 10:13:39;;;;;;;4.70;0.90;;;14.00;99.90;;;;;;5073129;28;20044;-53
2022/05/30 10:16:12;;;;;;;2.22;0.85;;;14.10;99.90;;;;;;5073206;28;20045;-53
2022/05/30 10:18:55;;;;;;;2.80;0.90;;;14.10;99.90;;;;;;5073138;28;20045;-53
2022/05/30 10:28:15;;;;;;;3.30;0.63;;;13.80;99.90;;;;;;5061776;28;20036;-53
2022/05/30 10:31:14;;;;;;;1.13;0.40;;;13.50;99.90;;;;;;5072903;28;20558;-52
2022/05/30 10:34:18;;;;;;;2.28;0.50;;;13.50;99.90;;;;;;5072388;28;20072;-53
2022/05/30 10:37:25;;;;;;;3.33;0.90;;;13.10;99.90;;;;;;5072977;28;20119;-52
2022/05/30 10:40:09;;;;;;;2.20;0.60;;;12.70;99.90;;;;;;5060178;28;20060;-52
2022/05/30 10:42:52;;;;;;;1.23;0.60;;;12.20;99.90;;;;;;5072354;28;20565;-53
2022/05/30 10:45:26;;;;;;;4.68;0.85;;;12.00;99.90;;;;;;5072839;28;20048;-52
2022/05/30 10:47:54;;;;;;;2.05;0.55;;;11.90;99.90;;;;;;5072350;28;20040;-53
2022/05/30 10:50:52;;;;;;;1.95;0.60;;;11.80;99.90;;;;;;5073014;28;20102;-51
2022/05/30 10:53:23;;;;;;;3.30;0.60;;;11.70;99.90;;;;;;5072296;28;20052;-52
2022/05/30 10:55:52;;;;;;;2.28;0.70;;;11.60;99.90;;;;;;5072657;28;20061;-52
2022/05/30 10:58:26;;;;;;;2.47;0.50;;;11.70;99.90;;;;;;5072512;28;20044;-53
2022/05/30 11:00:58;;;;;;;2.55;0.73;;;11.70;99.90;;;;;;5072334;28;20355;-51
2022/05/30 11:03:40;;;;;;;3.83;0.70;;;11.80;99.90;;;;;;5072095;28;20044;-52
2022/05/30 11:06:28;;;;;;;3.20;0.85;;;11.80;99.90;;;;;;5072553;28;20652;-51
2022/05/30 11:08:59;;;;;;;2.45;0.52;;;11.90;99.90;;;;;;5060518;28;20135;-51
2022/05/30 11:11:43;;;;;;;1.58;0.60;;;12.00;99.90;;;;;;5071939;28;20045;-52
2022/05/30 11:14:35;;;;;;;1.60;0.65;;;12.10;99.90;;;;;;5072607;28;20060;-51
2022/05/30 11:17:22;;;;;;;1.48;0.88;;;12.10;99.90;;;;;;5072072;28;20048;-52
2022/05/30 11:19:51;;;;;;;2.25;0.50;;;12.30;99.90;;;;;;5071964;28;20053;-52
2022/05/30 11:22:27;;;;;;;2.05;0.50;;;12.40;99.90;;;;;;5058550;28;20047;-51
2022/05/30 11:24:54;;;;;;;0.98;0.30;;;12.30;99.90;;;;;;5072212;28;20418;-52
2022/05/30 11:27:43;;;;;;;0.30;0.20;;;12.30;99.90;;;;;;5057870;28;20089;-52
2022/05/30 11:30:32;;;;;;;2.15;0.45;;;12.30;99.90;;;;;;4990331;28;20043;-52
2022/05/30 11:33:37;;;;;;;0.68;0.30;;;12.50;99.90;;;;;;4974233;28;20054;-53
2022/05/30 11:36:28;;;;;;;0.52;0.25;;;12.50;99.90;;;;;;4989590;28;20185;-52
2022/05/30 11:39:05;;;;;;;0.35;0.20;;;12.40;99.90;;;;;;4990509;28;20054;-52
2022/05/30 11:41:49;;;;;;;1.40;0.45;;;12.40;99.90;;;;;;4990683;28;20109;-52
2022/05/30 11:44:37;;;;;;;1.38;0.55;;;12.50;99.90;;;;;;4990161;28;20571;-53
2022/05/30 11:47:24;;;;;;;1.17;0.75;;;12.50;99.90;;;;;;4990446;28;20057;-53
2022/05/30 11:50:04;;;;;;;1.33;0.50;;;12.60;99.90;;;;;;4990450;28;20121;-53
2022/05/30 11:52:29;;;;;;;;;;;12.70;99.90;;;;;;4990671;28;20088;-52
2022/05/30 11:55:11;;;;;;;3.20;0.40;;;12.80;99.90;;;;;;4990129;28;20435;-53
2022/05/30 11:57:59;;;;;;;1.40;0.52;;;13.00;99.90;;;;;;4990362;28;20086;-52
2022/05/30 12:00:35;;;;;;;0.85;0.25;;;12.90;99.90;;;;;;4989731;28;20386;-52
2022/05/30 12:03:29;;;;;;;2.15;0.57;;;13.00;99.90;;;;;;4990005;28;20069;-53
2022/05/30 12:06:19;;;;;;;1.17;0.50;;;12.90;99.90;;;;;;4989565;28;20117;-52
2022/05/30 12:09:22;;;;;;;3.50;0.60;;;12.80;99.90;;;;;;5071739;28;20048;-53
2022/05/30 12:12:12;;;;;;;1.88;0.50;;;12.70;99.90;;;;;;5071504;28;20383;-52
2022/05/30 12:14:53;;;;;;;2.28;0.80;;;12.60;99.90;;;;;;5071610;28;20048;-53
2022/05/30 12:17:37;;;;;;;2.88;0.93;;;12.30;99.90;;;;;;5059104;28;20398;-52
2022/05/30 12:25:48;;;;;;;4.25;1.20;;;12.10;99.90;;;;;;5071300;28;20056;-52
2022/05/30 12:28:29;;;;;;;5.07;1.30;;;12.20;99.90;;;;;;5071382;28;20490;-53
2022/05/30 12:31:08;;;;;;;3.42;1.02;;;12.30;99.90;;;;;;5059073;28;20060;-53
2022/05/30 12:33:33;;;;;;;1.20;0.90;;;12.30;99.90;;;;;;5071424;28;20053;-52
2022/05/30 12:36:19;;;;;;;4.03;1.30;;;12.30;99.90;;;;;;5071193;28;20048;-52
2022/05/30 12:38:54;;;;;;;2.08;0.80;;;12.50;99.90;;;;;;4989775;28;20093;-53
2022/05/30 12:41:48;;;;;;;3.30;1.38;;;12.50;99.90;;;;;;4989260;28;20049;-53
2022/05/30 12:44:25;;;;;;;2.78;1.27;;;12.90;99.90;;;;;;4989656;28;20053;-53
2022/05/30 12:46:54;;;;;;;3.50;1.15;;;13.00;99.90;;;;;;4989412;28;20038;-53
2022/05/30 12:49:33;;;;;;;6.60;2.05;;;13.10;99.90;;;;;;4989310;28;20046;-53
2022/05/30 12:52:17;;;;;;;4.32;1.38;;;13.40;99.90;;;;;;4989443;28;20054;-53
2022/05/30 12:54:59;;;;;;;2.58;1.10;;;13.40;99.90;;;;;;4989795;28;20043;-52
2022/05/30 12:57:35;;;;;;;1.50;0.88;;;13.50;99.90;;;;;;4990320;28;20043;-53
2022/05/30 13:00:14;;;;;;;0.90;0.60;;;13.60;99.90;;;;;;4989116;28;20370;-51
2022/05/30 13:02:55;;;;;;;3.97;1.33;;;13.60;99.90;;;;;;4988870;28;20100;-53
2022/05/30 13:05:43;;;;;;;0.52;0.52;;;13.70;99.90;;;;;;4989387;28;20054;-52
2022/05/30 13:08:45;;;;;;;2.03;1.05;;;13.90;99.90;;;;;;4988942;28;20206;-51
2022/05/30 13:11:19;;;;;;;1.10;0.43;;;14.10;99.90;;;;;;4989519;28;20097;-53
2022/05/30 13:13:51;;;;;;;1.00;0.47;;;13.90;99.90;;;;;;4989497;28;20050;-52
2022/05/30 13:16:31;;;;;;;4.30;0.77;;;14.00;99.90;;;;;;5045868;28;20159;-53
2022/05/30 13:18:57;;;;;;;1.52;0.60;;;13.80;99.90;;;;;;5073180;28;20053;-52
2022/05/30 13:21:28;;;;;;;3.63;0.60;;;13.60;99.90;;;;;;5073627;28;20442;-53
2022/05/30 13:23:53;;;;;;;2.40;0.70;;;13.50;99.90;;;;;;5073991;28;20044;-52
2022/05/30 13:26:19;;;;;;;2.78;0.82;;;13.50;99.90;;;;;;5074105;28;20039;-53
2022/05/30 13:28:48;;;;;;;2.22;0.82;;;13.40;99.90;;;;;;5073862;28;20395;-52
2022/05/30 13:31:14;;;;;;;1.55;1.15;;;13.30;99.90;;;;;;5075292;28;20055;-53
2022/05/30 13:33:52;;;;;;;1.13;0.70;;;13.40;99.90;;;;;;5073779;28;20043;-53